sensor_id;sensor_type;location;lat;lon;timestamp;pressure;altitude;pressure_sealevel;temperature;humidity
78488;BME280;67885;49.758;9.582;2023-08-12T00:02:13;99479.69;;;24.46;50.26
78488;BME280;67885;49.758;9.582;2023-08-12T00:04:39;99474.09;;;24.40;50.98
78488;BME280;67885;49.758;9.582;2023-08-12T00:07:06;99472.19;;;24.34;50.97
78488;BME280;67885;49.758;9.582;2023-08-12T00:09:33;99459.06;;;24.24;51.03
78488;BME280;67885;49.758;9.582;2023-08-12T00:11:59;99451.75;;;24.18;51.19
78488;BME280;67885;49.758;9.582;2023-08-12T00:14:27;99469.06;;;24.24;51.29
78488;BME280;67885;49.758;9.582;2023-08-12T00:16:54;99470.31;;;24.21;51.70
78488;BME280;67885;49.758;9.582;2023-08-12T00:19:21;99466.75;;;24.21;51.38
78488;BME280;67885;49.758;9.582;2023-08-12T00:21:47;99462.81;;;24.23;50.87
78488;BME280;67885;49.758;9.582;2023-08-12T00:24:14;99430.94;;;23.99;50.87
78488;BME280;67885;49.758;9.582;2023-08-12T00:26:42;99464.25;;;24.19;51.30
78488;BME280;67885;49.758;9.582;2023-08-12T00:29:08;99423.63;;;23.93;51.22
78488;BME280;67885;49.758;9.582;2023-08-12T00:31:36;99451.75;;;24.12;50.96
78488;BME280;67885;49.758;9.582;2023-08-12T00:34:03;99457.38;;;24.10;51.50
78488;BME280;67885;49.758;9.582;2023-08-12T00:36:30;99450.09;;;24.11;51.67
78488;BME280;67885;49.758;9.582;2023-08-12T00:38:56;99454.66;;;24.10;51.36
78488;BME280;67885;49.758;9.582;2023-08-12T00:41:23;99373.38;;;23.56;51.90
78488;BME280;67885;49.758;9.582;2023-08-12T00:43:49;99442.78;;;24.04;51.43
78488;BME280;67885;49.758;9.582;2023-08-12T00:46:17;99438.84;;;24.00;51.11
78488;BME280;67885;49.758;9.582;2023-08-12T00:48:45;99433.19;;;23.95;51.46
78488;BME280;67885;49.758;9.582;2023-08-12T00:51:12;99437.59;;;23.96;51.44
78488;BME280;67885;49.758;9.582;2023-08-12T00:53:39;99434.06;;;23.96;51.08
78488;BME280;67885;49.758;9.582;2023-08-12T00:56:05;99407.31;;;23.79;51.25
78488;BME280;67885;49.758;9.582;2023-08-12T00:58:32;99435.91;;;23.95;51.42
78488;BME280;67885;49.758;9.582;2023-08-12T01:00:59;99413.59;;;23.86;51.08
78488;BME280;67885;49.758;9.582;2023-08-12T01:03:26;99424.69;;;23.92;51.68
78488;BME280;67885;49.758;9.582;2023-08-12T01:05:54;99426.53;;;23.91;51.33
78488;BME280;67885;49.758;9.582;2023-08-12T01:08:21;99421.50;;;23.88;52.17
78488;BME280;67885;49.758;9.582;2023-08-12T01:10:53;99398.75;;;23.55;52.02
78488;BME280;67885;49.758;9.582;2023-08-12T01:13:31;99429.16;;;23.78;51.49
78488;BME280;67885;49.758;9.582;2023-08-12T01:16:01;99426.66;;;23.76;51.53
78488;BME280;67885;49.758;9.582;2023-08-12T01:18:30;99422.50;;;23.73;52.72
78488;BME280;67885;49.758;9.582;2023-08-12T01:20:59;99416.69;;;23.70;52.10
78488;BME280;67885;49.758;9.582;2023-08-12T01:23:30;99408.75;;;23.68;52.00
78488;BME280;67885;49.758;9.582;2023-08-12T01:25:57;99405.84;;;23.63;52.60
78488;BME280;67885;49.758;9.582;2023-08-12T01:28:24;99412.88;;;23.57;52.30
78488;BME280;67885;49.758;9.582;2023-08-12T01:30:57;99411.41;;;23.48;52.13
78488;BME280;67885;49.758;9.582;2023-08-12T01:33:33;99374.06;;;23.23;52.21
78488;BME280;67885;49.758;9.582;2023-08-12T01:36:09;99396.53;;;23.24;53.43
78488;BME280;67885;49.758;9.582;2023-08-12T01:38:41;99395.94;;;23.29;53.41
78488;BME280;67885;49.758;9.582;2023-08-12T01:41:10;99419.66;;;23.33;53.51
78488;BME280;67885;49.758;9.582;2023-08-12T01:43:38;99421.28;;;23.28;53.50
78488;BME280;67885;49.758;9.582;2023-08-12T01:46:05;99411.06;;;23.23;52.92
78488;BME280;67885;49.758;9.582;2023-08-12T01:48:32;99411.91;;;23.23;52.92
78488;BME280;67885;49.758;9.582;2023-08-12T01:50:58;99407.16;;;23.26;52.51
78488;BME280;67885;49.758;9.582;2023-08-12T01:53:25;99407.75;;;23.28;52.79
78488;BME280;67885;49.758;9.582;2023-08-12T01:55:53;99391.13;;;23.24;53.11
78488;BME280;67885;49.758;9.582;2023-08-12T01:58:19;99384.06;;;23.23;53.51
78488;BME280;67885;49.758;9.582;2023-08-12T02:00:46;99393.44;;;23.27;53.27
78488;BME280;67885;49.758;9.582;2023-08-12T02:03:13;99398.59;;;23.22;52.92
78488;BME280;67885;49.758;9.582;2023-08-12T02:05:39;99383.34;;;23.07;53.82
78488;BME280;67885;49.758;9.582;2023-08-12T02:08:07;99398.81;;;23.20;53.14
78488;BME280;67885;49.758;9.582;2023-08-12T02:10:33;99386.09;;;23.21;53.49
78488;BME280;67885;49.758;9.582;2023-08-12T02:13:02;99391.75;;;23.26;54.08
78488;BME280;67885;49.758;9.582;2023-08-12T02:15:28;99390.28;;;23.23;54.00
78488;BME280;67885;49.758;9.582;2023-08-12T02:17:55;99376.78;;;23.23;53.56
78488;BME280;67885;49.758;9.582;2023-08-12T02:20:22;99381.56;;;23.21;53.77
78488;BME280;67885;49.758;9.582;2023-08-12T02:22:48;99382.16;;;23.17;53.27
78488;BME280;67885;49.758;9.582;2023-08-12T02:25:15;99381.53;;;23.15;54.15
78488;BME280;67885;49.758;9.582;2023-08-12T02:27:42;99327.50;;;22.80;53.58
78488;BME280;67885;49.758;9.582;2023-08-12T02:30:11;99319.38;;;22.73;53.71
78488;BME280;67885;49.758;9.582;2023-08-12T02:32:38;99369.84;;;23.07;53.73
78488;BME280;67885;49.758;9.582;2023-08-12T02:35:05;99367.31;;;23.06;54.33
78488;BME280;67885;49.758;9.582;2023-08-12T02:37:32;99347.31;;;22.94;54.63
78488;BME280;67885;49.758;9.582;2023-08-12T02:39:59;99367.38;;;23.13;54.38
78488;BME280;67885;49.758;9.582;2023-08-12T02:42:25;99368.84;;;23.15;54.27
78488;BME280;67885;49.758;9.582;2023-08-12T02:44:52;99372.19;;;23.17;54.58
78488;BME280;67885;49.758;9.582;2023-08-12T02:47:20;99373.88;;;23.18;54.83
78488;BME280;67885;49.758;9.582;2023-08-12T02:49:47;99375.50;;;23.19;54.57
78488;BME280;67885;49.758;9.582;2023-08-12T02:52:13;99354.03;;;23.11;54.84
78488;BME280;67885;49.758;9.582;2023-08-12T02:54:40;99371.34;;;23.17;54.92
78488;BME280;67885;49.758;9.582;2023-08-12T02:57:07;99371.34;;;23.17;54.26
78488;BME280;67885;49.758;9.582;2023-08-12T02:59:33;99375.91;;;23.16;54.45
78488;BME280;67885;49.758;9.582;2023-08-12T03:02:00;99353.38;;;23.02;55.15
78488;BME280;67885;49.758;9.582;2023-08-12T03:04:30;99373.88;;;23.18;54.61
78488;BME280;67885;49.758;9.582;2023-08-12T03:06:56;99377.53;;;23.11;55.69
78488;BME280;67885;49.758;9.582;2023-08-12T03:09:23;99372.78;;;23.13;54.75
78488;BME280;67885;49.758;9.582;2023-08-12T03:11:49;99369.38;;;23.04;55.08
78488;BME280;67885;49.758;9.582;2023-08-12T03:14:16;99378.28;;;22.98;54.82
78488;BME280;67885;49.758;9.582;2023-08-12T03:16:43;99311.84;;;22.62;55.79
78488;BME280;67885;49.758;9.582;2023-08-12T03:19:09;99361.00;;;22.92;55.10
78488;BME280;67885;49.758;9.582;2023-08-12T03:21:37;99358.03;;;22.80;55.79
78488;BME280;67885;49.758;9.582;2023-08-12T03:24:05;99350.38;;;22.84;56.12
78488;BME280;67885;49.758;9.582;2023-08-12T03:26:31;99349.31;;;22.78;56.22
78488;BME280;67885;49.758;9.582;2023-08-12T03:28:58;99382.66;;;22.99;55.47
78488;BME280;67885;49.758;9.582;2023-08-12T03:31:25;99375.53;;;22.91;55.75
78488;BME280;67885;49.758;9.582;2023-08-12T03:33:51;99365.78;;;22.90;56.15
78488;BME280;67885;49.758;9.582;2023-08-12T03:36:18;99355.19;;;22.88;55.78
78488;BME280;67885;49.758;9.582;2023-08-12T03:38:46;99362.03;;;22.91;56.50
78488;BME280;67885;49.758;9.582;2023-08-12T03:41:13;99356.19;;;22.81;57.21
78488;BME280;67885;49.758;9.582;2023-08-12T03:43:39;99287.47;;;22.48;56.87
78488;BME280;67885;49.758;9.582;2023-08-12T03:46:06;99340.59;;;22.83;56.18
78488;BME280;67885;49.758;9.582;2023-08-12T03:48:33;99346.16;;;22.74;56.54
78488;BME280;67885;49.758;9.582;2023-08-12T03:50:59;99368.81;;;22.80;57.24
78488;BME280;67885;49.758;9.582;2023-08-12T03:53:26;99360.56;;;22.82;56.66
78488;BME280;67885;49.758;9.582;2023-08-12T03:55:54;99359.09;;;22.79;56.45
78488;BME280;67885;49.758;9.582;2023-08-12T03:58:20;99351.56;;;22.74;56.70
78488;BME280;67885;49.758;9.582;2023-08-12T04:00:47;99358.22;;;22.79;56.89
78488;BME280;67885;49.758;9.582;2023-08-12T04:03:14;99320.44;;;22.44;56.88
78488;BME280;67885;49.758;9.582;2023-08-12T04:05:47;99350.44;;;22.62;56.26
78488;BME280;67885;49.758;9.582;2023-08-12T04:08:14;99346.03;;;22.54;56.44
78488;BME280;67885;49.758;9.582;2023-08-12T04:10:44;99352.03;;;22.50;56.55
78488;BME280;67885;49.758;9.582;2023-08-12T04:13:12;99348.50;;;22.49;57.19
78488;BME280;67885;49.758;9.582;2023-08-12T04:15:39;99347.03;;;22.47;57.58
78488;BME280;67885;49.758;9.582;2023-08-12T04:18:06;99341.22;;;22.50;57.48
78488;BME280;67885;49.758;9.582;2023-08-12T04:20:32;99341.44;;;22.48;56.99
78488;BME280;67885;49.758;9.582;2023-08-12T04:22:59;99337.91;;;22.48;57.74
78488;BME280;67885;49.758;9.582;2023-08-12T04:25:26;99317.63;;;22.30;57.91
78488;BME280;67885;49.758;9.582;2023-08-12T04:27:52;99350.19;;;22.57;57.69
78488;BME280;67885;49.758;9.582;2023-08-12T04:30:20;99359.56;;;22.61;58.17
78488;BME280;67885;49.758;9.582;2023-08-12T04:32:47;99364.00;;;22.69;52.96
78488;BME280;67885;49.758;9.582;2023-08-12T04:35:14;99348.84;;;22.74;54.89
78488;BME280;67885;49.758;9.582;2023-08-12T04:37:40;99359.75;;;22.88;55.80
78488;BME280;67885;49.758;9.582;2023-08-12T04:40:08;99364.31;;;22.87;56.18
78488;BME280;67885;49.758;9.582;2023-08-12T04:42:36;99383.03;;;22.89;54.55
78488;BME280;67885;49.758;9.582;2023-08-12T04:45:03;99393.00;;;22.88;56.07
78488;BME280;67885;49.758;9.582;2023-08-12T04:47:32;99401.28;;;22.87;56.29
78488;BME280;67885;49.758;9.582;2023-08-12T04:49:58;99392.97;;;22.82;57.18
78488;BME280;67885;49.758;9.582;2023-08-12T04:52:25;99387.16;;;22.85;56.61
78488;BME280;67885;49.758;9.582;2023-08-12T04:54:52;99368.63;;;22.75;57.22
78488;BME280;67885;49.758;9.582;2023-08-12T04:57:19;99375.81;;;22.68;57.34
78488;BME280;67885;49.758;9.582;2023-08-12T04:59:46;99373.72;;;22.63;57.12
78488;BME280;67885;49.758;9.582;2023-08-12T05:02:12;99364.09;;;22.54;57.25
78488;BME280;67885;49.758;9.582;2023-08-12T05:04:41;99376.06;;;22.45;57.53
78488;BME280;67885;49.758;9.582;2023-08-12T05:07:07;99377.53;;;22.47;57.69
78488;BME280;67885;49.758;9.582;2023-08-12T05:09:34;99363.47;;;22.52;58.02
78488;BME280;67885;49.758;9.582;2023-08-12T05:12:00;99361.56;;;22.46;57.49
78488;BME280;67885;49.758;9.582;2023-08-12T05:14:27;99370.66;;;22.45;57.73
78488;BME280;67885;49.758;9.582;2023-08-12T05:16:54;99351.22;;;22.49;57.94
78488;BME280;67885;49.758;9.582;2023-08-12T05:19:20;99334.38;;;22.47;57.71
78488;BME280;67885;49.758;9.582;2023-08-12T05:21:48;99302.41;;;22.22;58.57
78488;BME280;67885;49.758;9.582;2023-08-12T05:24:15;99340.72;;;22.39;58.49
78488;BME280;67885;49.758;9.582;2023-08-12T05:26:42;99333.16;;;22.28;58.59
78488;BME280;67885;49.758;9.582;2023-08-12T05:29:09;99348.25;;;22.44;58.26
78488;BME280;67885;49.758;9.582;2023-08-12T05:31:35;99337.00;;;22.40;58.24
78488;BME280;67885;49.758;9.582;2023-08-12T05:34:02;99350.34;;;22.49;58.62
78488;BME280;67885;49.758;9.582;2023-08-12T05:36:29;99362.88;;;22.56;58.56
78488;BME280;67885;49.758;9.582;2023-08-12T05:38:57;99355.59;;;22.57;58.30
78488;BME280;67885;49.758;9.582;2023-08-12T05:41:23;99325.59;;;22.38;58.10
78488;BME280;67885;49.758;9.582;2023-08-12T05:43:50;99347.09;;;22.53;58.64
78488;BME280;67885;49.758;9.582;2023-08-12T05:46:17;99336.28;;;22.53;58.12
78488;BME280;67885;49.758;9.582;2023-08-12T05:48:43;99334.81;;;22.51;58.43
78488;BME280;67885;49.758;9.582;2023-08-12T05:51:10;99308.13;;;22.34;58.81
78488;BME280;67885;49.758;9.582;2023-08-12T05:53:37;99337.75;;;22.56;59.30
78488;BME280;67885;49.758;9.582;2023-08-12T05:56:05;99335.69;;;22.58;58.71
78488;BME280;67885;49.758;9.582;2023-08-12T05:58:32;99351.97;;;22.71;59.48
78488;BME280;67885;49.758;9.582;2023-08-12T06:00:58;99349.50;;;22.77;59.30
78488;BME280;67885;49.758;9.582;2023-08-12T06:03:25;99347.47;;;22.85;59.95
78488;BME280;67885;49.758;9.582;2023-08-12T06:05:52;99324.81;;;22.80;58.87
78488;BME280;67885;49.758;9.582;2023-08-12T06:08:18;99357.75;;;23.03;59.35
78488;BME280;67885;49.758;9.582;2023-08-12T06:10:45;99357.22;;;23.15;59.46
78488;BME280;67885;49.758;9.582;2023-08-12T06:13:13;99353.53;;;23.29;59.38
78488;BME280;67885;49.758;9.582;2023-08-12T06:15:40;99354.19;;;23.45;58.63
78488;BME280;67885;49.758;9.582;2023-08-12T06:18:06;99319.25;;;23.36;58.72
78488;BME280;67885;49.758;9.582;2023-08-12T06:20:33;99360.50;;;23.65;58.09
78488;BME280;67885;49.758;9.582;2023-08-12T06:23:00;99347.63;;;23.67;57.15
78488;BME280;67885;49.758;9.582;2023-08-12T06:25:27;99349.50;;;23.80;57.01
78488;BME280;67885;49.758;9.582;2023-08-12T06:27:53;99352.41;;;23.85;56.50
78488;BME280;67885;49.758;9.582;2023-08-12T06:30:21;99348.91;;;23.85;57.22
78488;BME280;67885;49.758;9.582;2023-08-12T06:32:48;99353.44;;;23.84;57.35
78488;BME280;67885;49.758;9.582;2023-08-12T06:35:15;99347.81;;;23.79;57.40
78488;BME280;67885;49.758;9.582;2023-08-12T06:37:41;99345.13;;;23.86;57.17
78488;BME280;67885;49.758;9.582;2023-08-12T06:40:08;99356.00;;;23.99;57.77
78488;BME280;67885;49.758;9.582;2023-08-12T06:42:35;99357.47;;;24.02;57.14
78488;BME280;67885;49.758;9.582;2023-08-12T06:45:02;99323.69;;;23.78;57.00
78488;BME280;67885;49.758;9.582;2023-08-12T06:47:31;99347.88;;;24.06;57.17
78488;BME280;67885;49.758;9.582;2023-08-12T06:49:58;99354.13;;;24.13;56.44
78488;BME280;67885;49.758;9.582;2023-08-12T06:52:24;99253.38;;;23.57;57.04
78488;BME280;67885;49.758;9.582;2023-08-12T06:54:51;99352.66;;;24.24;57.09
78488;BME280;67885;49.758;9.582;2023-08-12T06:57:18;99358.09;;;24.31;57.17
78488;BME280;67885;49.758;9.582;2023-08-12T06:59:44;99354.13;;;24.40;57.05
78488;BME280;67885;49.758;9.582;2023-08-12T07:02:11;99364.53;;;24.50;55.95
78488;BME280;67885;49.758;9.582;2023-08-12T07:04:39;99350.38;;;24.41;56.56
78488;BME280;67885;49.758;9.582;2023-08-12T07:07:06;99363.50;;;24.64;56.13
78488;BME280;67885;49.758;9.582;2023-08-12T07:09:32;99364.31;;;24.65;55.16
78488;BME280;67885;49.758;9.582;2023-08-12T07:11:59;99370.59;;;24.65;55.43
78488;BME280;67885;49.758;9.582;2023-08-12T07:14:26;99364.97;;;24.67;55.99
78488;BME280;67885;49.758;9.582;2023-08-12T07:16:54;99363.50;;;24.71;55.28
78488;BME280;67885;49.758;9.582;2023-08-12T07:19:21;99367.22;;;24.77;55.36
78488;BME280;67885;49.758;9.582;2023-08-12T07:21:49;99368.88;;;24.84;55.33
78488;BME280;67885;49.758;9.582;2023-08-12T07:24:16;99362.41;;;24.92;55.04
78488;BME280;67885;49.758;9.582;2023-08-12T07:26:43;99363.44;;;24.98;54.80
78488;BME280;67885;49.758;9.582;2023-08-12T07:29:10;99368.00;;;25.04;54.83
78488;BME280;67885;49.758;9.582;2023-08-12T07:31:36;99366.50;;;25.15;55.19
78488;BME280;67885;49.758;9.582;2023-08-12T07:34:03;99363.28;;;25.31;54.64
78488;BME280;67885;49.758;9.582;2023-08-12T07:36:31;99366.16;;;25.50;53.07
78488;BME280;67885;49.758;9.582;2023-08-12T07:38:59;99362.53;;;25.69;53.95
78488;BME280;67885;49.758;9.582;2023-08-12T07:41:26;99349.47;;;25.85;52.86
78488;BME280;67885;49.758;9.582;2023-08-12T07:43:53;99367.91;;;26.08;52.13
78488;BME280;67885;49.758;9.582;2023-08-12T07:46:20;99359.28;;;26.18;52.15
78488;BME280;67885;49.758;9.582;2023-08-12T07:48:46;99357.25;;;26.38;50.93
78488;BME280;67885;49.758;9.582;2023-08-12T07:51:13;99353.16;;;26.48;50.18
78488;BME280;67885;49.758;9.582;2023-08-12T07:53:40;99349.63;;;26.47;49.76
78488;BME280;67885;49.758;9.582;2023-08-12T07:56:08;99350.66;;;26.46;49.30
78488;BME280;67885;49.758;9.582;2023-08-12T07:58:35;99344.66;;;26.44;49.44
78488;BME280;67885;49.758;9.582;2023-08-12T08:01:01;99346.22;;;26.52;50.59
78488;BME280;67885;49.758;9.582;2023-08-12T08:03:30;99342.63;;;26.58;50.84
78488;BME280;67885;49.758;9.582;2023-08-12T08:05:56;99332.81;;;26.57;49.87
78488;BME280;67885;49.758;9.582;2023-08-12T08:08:23;99326.91;;;26.60;50.42
78488;BME280;67885;49.758;9.582;2023-08-12T08:10:50;99327.91;;;26.72;49.66
78488;BME280;67885;49.758;9.582;2023-08-12T08:13:18;99325.00;;;26.86;49.91
78488;BME280;67885;49.758;9.582;2023-08-12T08:15:45;99341.31;;;27.04;49.79
78488;BME280;67885;49.758;9.582;2023-08-12T08:18:11;99342.44;;;27.15;50.66
78488;BME280;67885;49.758;9.582;2023-08-12T08:20:41;99342.13;;;27.23;50.61
78488;BME280;67885;49.758;9.582;2023-08-12T08:23:08;99352.25;;;27.35;50.84
78488;BME280;67885;49.758;9.582;2023-08-12T08:25:34;99348.75;;;27.46;50.65
78488;BME280;67885;49.758;9.582;2023-08-12T08:28:01;99351.41;;;27.53;50.57
78488;BME280;67885;49.758;9.582;2023-08-12T08:30:29;99342.19;;;27.54;49.95
78488;BME280;67885;49.758;9.582;2023-08-12T08:32:56;99344.19;;;27.58;49.52
78488;BME280;67885;49.758;9.582;2023-08-12T08:35:23;99352.13;;;27.60;50.30
78488;BME280;67885;49.758;9.582;2023-08-12T08:37:49;99321.19;;;27.42;50.13
78488;BME280;67885;49.758;9.582;2023-08-12T08:40:16;99335.22;;;27.58;49.75
78488;BME280;67885;49.758;9.582;2023-08-12T08:42:43;99333.56;;;27.57;49.49
78488;BME280;67885;49.758;9.582;2023-08-12T08:45:13;99342.09;;;27.61;49.79
78488;BME280;67885;49.758;9.582;2023-08-12T08:47:42;99336.84;;;27.59;49.24
78488;BME280;67885;49.758;9.582;2023-08-12T08:50:10;99345.25;;;27.57;49.48
78488;BME280;67885;49.758;9.582;2023-08-12T08:52:37;99345.25;;;27.57;49.18
78488;BME280;67885;49.758;9.582;2023-08-12T08:55:04;99355.31;;;27.57;48.76
78488;BME280;67885;49.758;9.582;2023-08-12T08:57:31;99292.06;;;27.13;50.35
78488;BME280;67885;49.758;9.582;2023-08-12T08:59:58;99345.81;;;27.48;50.33
78488;BME280;67885;49.758;9.582;2023-08-12T09:02:25;99346.88;;;27.47;52.03
78488;BME280;67885;49.758;9.582;2023-08-12T09:04:55;99356.13;;;27.57;50.74
78488;BME280;67885;49.758;9.582;2023-08-12T09:07:22;99353.66;;;27.56;51.85
78488;BME280;67885;49.758;9.582;2023-08-12T09:09:52;99350.44;;;27.59;51.28
78488;BME280;67885;49.758;9.582;2023-08-12T09:12:21;99336.66;;;27.61;50.00
78488;BME280;67885;49.758;9.582;2023-08-12T09:14:48;99354.94;;;27.53;50.00
78488;BME280;67885;49.758;9.582;2023-08-12T09:17:15;99340.97;;;27.50;52.52
78488;BME280;67885;49.758;9.582;2023-08-12T09:19:41;99326.78;;;27.48;48.95
78488;BME280;67885;49.758;9.582;2023-08-12T09:22:10;99332.59;;;27.63;49.47
78488;BME280;67885;49.758;9.582;2023-08-12T09:24:37;99336.81;;;27.77;50.30
78488;BME280;67885;49.758;9.582;2023-08-12T09:27:04;99347.00;;;27.94;49.27
78488;BME280;67885;49.758;9.582;2023-08-12T09:29:32;99349.72;;;27.94;50.29
78488;BME280;67885;49.758;9.582;2023-08-12T09:32:12;99342.75;;;27.98;50.25
78488;BME280;67885;49.758;9.582;2023-08-12T09:34:46;99339.63;;;28.01;49.40
78488;BME280;67885;49.758;9.582;2023-08-12T09:37:15;99328.97;;;28.12;50.92
78488;BME280;67885;49.758;9.582;2023-08-12T09:39:42;99331.22;;;28.38;49.92
78488;BME280;67885;49.758;9.582;2023-08-12T09:42:09;99326.50;;;28.57;50.22
78488;BME280;67885;49.758;9.582;2023-08-12T09:44:36;99327.69;;;28.73;48.93
78488;BME280;67885;49.758;9.582;2023-08-12T09:47:03;99335.13;;;28.90;49.98
78488;BME280;67885;49.758;9.582;2023-08-12T09:49:30;99329.84;;;29.12;48.98
78488;BME280;67885;49.758;9.582;2023-08-12T09:51:58;99321.41;;;29.25;48.28
78488;BME280;67885;49.758;9.582;2023-08-12T09:54:27;99310.34;;;29.32;49.14
78488;BME280;67885;49.758;9.582;2023-08-12T09:56:57;99319.97;;;29.52;48.74
78488;BME280;67885;49.758;9.582;2023-08-12T09:59:29;99329.13;;;29.57;47.47
78488;BME280;67885;49.758;9.582;2023-08-12T10:01:57;99329.19;;;29.63;47.58
78488;BME280;67885;49.758;9.582;2023-08-12T10:04:29;99327.06;;;29.65;47.35
78488;BME280;67885;49.758;9.582;2023-08-12T10:07:00;99289.75;;;29.53;46.41
78488;BME280;67885;49.758;9.582;2023-08-12T10:09:32;99314.97;;;29.77;45.28
78488;BME280;67885;49.758;9.582;2023-08-12T10:11:59;99303.75;;;29.74;47.12
78488;BME280;67885;49.758;9.582;2023-08-12T10:14:26;99306.63;;;29.84;45.56
78488;BME280;67885;49.758;9.582;2023-08-12T10:16:54;99304.88;;;29.90;47.94
78488;BME280;67885;49.758;9.582;2023-08-12T10:19:23;99284.84;;;30.01;46.67
78488;BME280;67885;49.758;9.582;2023-08-12T10:21:54;99292.84;;;30.08;46.04
78488;BME280;67885;49.758;9.582;2023-08-12T10:24:23;99289.88;;;30.09;45.40
78488;BME280;67885;49.758;9.582;2023-08-12T10:26:53;99277.53;;;30.07;45.68
78488;BME280;67885;49.758;9.582;2023-08-12T10:29:20;99292.25;;;30.23;47.35
78488;BME280;67885;49.758;9.582;2023-08-12T10:31:47;99271.75;;;30.20;48.53
78488;BME280;67885;49.758;9.582;2023-08-12T10:34:18;99296.81;;;30.51;46.90
78488;BME280;67885;49.758;9.582;2023-08-12T10:36:45;99292.78;;;30.59;43.89
78488;BME280;67885;49.758;9.582;2023-08-12T10:39:13;99284.19;;;30.67;44.31
78488;BME280;67885;49.758;9.582;2023-08-12T10:41:52;99272.78;;;30.75;44.04
78488;BME280;67885;49.758;9.582;2023-08-12T10:44:21;99247.03;;;30.71;43.00
78488;BME280;67885;49.758;9.582;2023-08-12T10:46:52;99235.34;;;30.76;43.87
78488;BME280;67885;49.758;9.582;2023-08-12T10:49:20;99261.31;;;31.01;42.78
78488;BME280;67885;49.758;9.582;2023-08-12T10:51:49;99258.56;;;31.01;41.62
78488;BME280;67885;49.758;9.582;2023-08-12T10:54:23;99278.91;;;31.05;42.31
78488;BME280;67885;49.758;9.582;2023-08-12T10:57:07;99266.06;;;31.05;43.42
78488;BME280;67885;49.758;9.582;2023-08-12T10:59:54;99254.00;;;31.06;42.28
78488;BME280;67885;49.758;9.582;2023-08-12T11:02:26;99250.72;;;31.04;43.47
78488;BME280;67885;49.758;9.582;2023-08-12T11:04:54;99256.00;;;31.11;44.23
78488;BME280;67885;49.758;9.582;2023-08-12T11:07:37;99221.06;;;30.96;43.60
78488;BME280;67885;49.758;9.582;2023-08-12T11:10:10;99245.06;;;31.11;42.41
78488;BME280;67885;49.758;9.582;2023-08-12T11:12:40;99237.66;;;31.11;43.76
78488;BME280;67885;49.758;9.582;2023-08-12T11:15:08;99234.44;;;31.15;42.56
78488;BME280;67885;49.758;9.582;2023-08-12T11:17:37;99229.50;;;31.17;44.04
78488;BME280;67885;49.758;9.582;2023-08-12T11:20:06;99218.09;;;31.25;42.28
78488;BME280;67885;49.758;9.582;2023-08-12T11:22:35;99215.38;;;31.25;41.22
78488;BME280;67885;49.758;9.582;2023-08-12T11:25:04;99199.53;;;31.27;41.78
78488;BME280;67885;49.758;9.582;2023-08-12T11:27:39;99210.13;;;31.51;42.05
78488;BME280;67885;49.758;9.582;2023-08-12T11:30:07;99210.50;;;31.59;39.87
78488;BME280;67885;49.758;9.582;2023-08-12T11:32:34;99208.06;;;31.63;41.41
78488;BME280;67885;49.758;9.582;2023-08-12T11:35:03;99203.44;;;31.64;40.56
78488;BME280;67885;49.758;9.582;2023-08-12T11:37:31;99214.97;;;31.71;40.93
78488;BME280;67885;49.758;9.582;2023-08-12T11:39:58;99219.09;;;31.73;41.72
78488;BME280;67885;49.758;9.582;2023-08-12T11:42:24;99227.56;;;31.72;40.93
78488;BME280;67885;49.758;9.582;2023-08-12T11:44:52;99221.75;;;31.63;40.79
78488;BME280;67885;49.758;9.582;2023-08-12T11:47:19;99219.31;;;31.67;42.66
78488;BME280;67885;49.758;9.582;2023-08-12T11:49:45;99230.81;;;31.64;44.78
78488;BME280;67885;49.758;9.582;2023-08-12T11:52:13;99204.44;;;31.57;44.87
78488;BME280;67885;49.758;9.582;2023-08-12T11:54:40;99218.34;;;31.51;45.34
78488;BME280;67885;49.758;9.582;2023-08-12T11:57:07;99207.22;;;31.30;45.73
78488;BME280;67885;49.758;9.582;2023-08-12T11:59:34;99244.13;;;31.27;47.65
78488;BME280;67885;49.758;9.582;2023-08-12T12:02:04;99263.75;;;31.19;46.45
78488;BME280;67885;49.758;9.582;2023-08-12T12:04:31;99281.69;;;31.10;49.02
78488;BME280;67885;49.758;9.582;2023-08-12T12:06:59;99319.13;;;30.87;49.48
78488;BME280;67885;49.758;9.582;2023-08-12T12:09:31;99360.75;;;30.50;49.02
78488;BME280;67885;49.758;9.582;2023-08-12T12:11:59;99413.59;;;30.10;50.40
78488;BME280;67885;49.758;9.582;2023-08-12T12:14:26;99378.38;;;29.80;50.53
78488;BME280;67885;49.758;9.582;2023-08-12T12:16:52;99366.88;;;29.49;50.75
78488;BME280;67885;49.758;9.582;2023-08-12T12:19:21;99401.81;;;29.23;51.40
78488;BME280;67885;49.758;9.582;2023-08-12T12:21:50;99437.88;;;29.01;51.55
78488;BME280;67885;49.758;9.582;2023-08-12T12:24:18;99441.06;;;28.74;50.65
78488;BME280;67885;49.758;9.582;2023-08-12T12:26:46;99417.69;;;28.43;51.48
78488;BME280;67885;49.758;9.582;2023-08-12T12:29:13;99459.84;;;28.40;52.00
78488;BME280;67885;49.758;9.582;2023-08-12T12:31:41;99426.06;;;28.18;53.17
78488;BME280;67885;49.758;9.582;2023-08-12T12:34:08;99441.31;;;28.19;52.89
78488;BME280;67885;49.758;9.582;2023-08-12T12:36:37;99375.03;;;27.83;51.62
78488;BME280;67885;49.758;9.582;2023-08-12T12:39:04;99405.59;;;27.97;53.08
78488;BME280;67885;49.758;9.582;2023-08-12T12:41:32;99365.78;;;27.72;53.46
78488;BME280;67885;49.758;9.582;2023-08-12T12:43:59;99358.19;;;27.74;51.08
78488;BME280;67885;49.758;9.582;2023-08-12T12:46:26;99341.25;;;27.60;52.44
78488;BME280;67885;49.758;9.582;2023-08-12T12:48:52;99336.59;;;27.49;52.71
78488;BME280;67885;49.758;9.582;2023-08-12T12:51:19;99323.97;;;27.36;52.68
78488;BME280;67885;49.758;9.582;2023-08-12T12:53:47;99363.03;;;27.41;52.50
78488;BME280;67885;49.758;9.582;2023-08-12T12:56:14;99357.88;;;27.33;52.39
78488;BME280;67885;49.758;9.582;2023-08-12T12:58:40;99364.59;;;27.31;53.22
78488;BME280;67885;49.758;9.582;2023-08-12T13:01:07;99362.81;;;27.24;52.41
78488;BME280;67885;49.758;9.582;2023-08-12T13:03:34;99348.81;;;27.09;53.40